sensor_id;sensor_type;location;lat;lon;timestamp;P1;durP1;ratioP1;P2;durP2;ratioP2
78668;SDS011;67984;45.118;20.724;2023-08-17T00:03:28;21.88;;;14.02;;
78668;SDS011;67984;45.118;20.724;2023-08-17T00:13:29;23.88;;;15.30;;
78668;SDS011;67984;45.118;20.724;2023-08-17T00:23:29;22.13;;;13.20;;
78668;SDS011;67984;45.118;20.724;2023-08-17T00:33:30;17.92;;;13.38;;
78668;SDS011;67984;45.118;20.724;2023-08-17T00:43:30;22.25;;;15.35;;
78668;SDS011;67984;45.118;20.724;2023-08-17T00:53:31;21.77;;;14.07;;
78668;SDS011;67984;45.118;20.724;2023-08-17T01:03:33;25.70;;;13.60;;
78668;SDS011;67984;45.118;20.724;2023-08-17T01:23:48;18.38;;;14.30;;
78668;SDS011;67984;45.118;20.724;2023-08-17T01:33:54;20.55;;;14.20;;
78668;SDS011;67984;45.118;20.724;2023-08-17T01:43:57;18.55;;;13.52;;
78668;SDS011;67984;45.118;20.724;2023-08-17T01:53:58;15.35;;;12.43;;
78668;SDS011;67984;45.118;20.724;2023-08-17T02:03:58;19.25;;;13.25;;
78668;SDS011;67984;45.118;20.724;2023-08-17T02:14:02;21.45;;;12.63;;
78668;SDS011;67984;45.118;20.724;2023-08-17T02:24:02;23.05;;;13.35;;
78668;SDS011;67984;45.118;20.724;2023-08-17T02:34:03;16.70;;;13.03;;
78668;SDS011;67984;45.118;20.724;2023-08-17T02:44:05;26.48;;;15.70;;
78668;SDS011;67984;45.118;20.724;2023-08-17T02:54:06;36.80;;;17.55;;
78668;SDS011;67984;45.118;20.724;2023-08-17T03:04:06;25.08;;;15.13;;
78668;SDS011;67984;45.118;20.724;2023-08-17T03:14:07;20.40;;;14.18;;
78668;SDS011;67984;45.118;20.724;2023-08-17T03:24:08;20.80;;;14.80;;
78668;SDS011;67984;45.118;20.724;2023-08-17T03:34:08;16.50;;;13.10;;
78668;SDS011;67984;45.118;20.724;2023-08-17T03:44:09;20.65;;;14.35;;
78668;SDS011;67984;45.118;20.724;2023-08-17T03:54:11;20.50;;;13.53;;
78668;SDS011;67984;45.118;20.724;2023-08-17T04:04:12;20.42;;;13.32;;
78668;SDS011;67984;45.118;20.724;2023-08-17T04:14:12;20.80;;;14.15;;
78668;SDS011;67984;45.118;20.724;2023-08-17T04:24:14;20.92;;;13.52;;
78668;SDS011;67984;45.118;20.724;2023-08-17T04:34:15;19.05;;;15.10;;
78668;SDS011;67984;45.118;20.724;2023-08-17T04:44:16;16.67;;;13.40;;
78668;SDS011;67984;45.118;20.724;2023-08-17T04:54:17;19.67;;;14.40;;
78668;SDS011;67984;45.118;20.724;2023-08-17T05:04:18;23.30;;;13.95;;
78668;SDS011;67984;45.118;20.724;2023-08-17T05:14:44;18.45;;;14.68;;
78668;SDS011;67984;45.118;20.724;2023-08-17T05:24:45;19.75;;;14.48;;
78668;SDS011;67984;45.118;20.724;2023-08-17T05:34:47;20.20;;;14.43;;
78668;SDS011;67984;45.118;20.724;2023-08-17T05:44:48;17.40;;;13.17;;
78668;SDS011;67984;45.118;20.724;2023-08-17T05:54:48;28.25;;;14.98;;
78668;SDS011;67984;45.118;20.724;2023-08-17T06:04:49;22.90;;;13.70;;
78668;SDS011;67984;45.118;20.724;2023-08-17T06:14:49;19.17;;;13.07;;
78668;SDS011;67984;45.118;20.724;2023-08-17T06:24:50;16.90;;;13.52;;
78668;SDS011;67984;45.118;20.724;2023-08-17T06:34:50;16.20;;;12.70;;
78668;SDS011;67984;45.118;20.724;2023-08-17T06:44:51;19.20;;;14.50;;
78668;SDS011;67984;45.118;20.724;2023-08-17T06:54:51;14.27;;;11.02;;
78668;SDS011;67984;45.118;20.724;2023-08-17T07:04:52;17.30;;;12.73;;
78668;SDS011;67984;45.118;20.724;2023-08-17T07:14:53;16.75;;;14.43;;
78668;SDS011;67984;45.118;20.724;2023-08-17T07:24:54;16.55;;;12.95;;
78668;SDS011;67984;45.118;20.724;2023-08-17T07:34:54;13.93;;;11.27;;
78668;SDS011;67984;45.118;20.724;2023-08-17T07:44:55;12.55;;;11.25;;
78668;SDS011;67984;45.118;20.724;2023-08-17T07:54:57;15.07;;;12.13;;
78668;SDS011;67984;45.118;20.724;2023-08-17T08:04:57;14.75;;;11.15;;
78668;SDS011;67984;45.118;20.724;2023-08-17T08:14:58;12.73;;;10.50;;
78668;SDS011;67984;45.118;20.724;2023-08-17T08:24:58;13.13;;;9.65;;
78668;SDS011;67984;45.118;20.724;2023-08-17T08:34:59;9.65;;;8.27;;
78668;SDS011;67984;45.118;20.724;2023-08-17T08:44:59;10.77;;;8.20;;
78668;SDS011;67984;45.118;20.724;2023-08-17T08:55:03;11.00;;;7.47;;
78668;SDS011;67984;45.118;20.724;2023-08-17T09:05:05;9.68;;;6.03;;
78668;SDS011;67984;45.118;20.724;2023-08-17T09:15:06;8.80;;;8.00;;
78668;SDS011;67984;45.118;20.724;2023-08-17T09:25:08;11.77;;;8.33;;
78668;SDS011;67984;45.118;20.724;2023-08-17T09:35:08;10.50;;;7.45;;
78668;SDS011;67984;45.118;20.724;2023-08-17T09:45:09;17.83;;;8.30;;
78668;SDS011;67984;45.118;20.724;2023-08-17T09:55:10;9.77;;;7.97;;
78668;SDS011;67984;45.118;20.724;2023-08-17T10:05:12;10.57;;;8.05;;
78668;SDS011;67984;45.118;20.724;2023-08-17T10:15:13;11.18;;;9.02;;
78668;SDS011;67984;45.118;20.724;2023-08-17T10:25:15;10.70;;;9.23;;
78668;SDS011;67984;45.118;20.724;2023-08-17T10:35:16;16.30;;;10.98;;
78668;SDS011;67984;45.118;20.724;2023-08-17T10:45:30;11.15;;;10.05;;
78668;SDS011;67984;45.118;20.724;2023-08-17T10:55:35;14.48;;;10.88;;
78668;SDS011;67984;45.118;20.724;2023-08-17T11:05:37;15.73;;;10.88;;
78668;SDS011;67984;45.118;20.724;2023-08-17T11:25:38;12.40;;;10.93;;
78668;SDS011;67984;45.118;20.724;2023-08-17T11:35:39;14.48;;;11.98;;
78668;SDS011;67984;45.118;20.724;2023-08-17T11:46:05;12.77;;;11.57;;
78668;SDS011;67984;45.118;20.724;2023-08-17T11:56:06;14.05;;;12.35;;
78668;SDS011;67984;45.118;20.724;2023-08-17T12:06:07;15.83;;;11.70;;
78668;SDS011;67984;45.118;20.724;2023-08-17T12:16:13;17.40;;;11.43;;
78668;SDS011;67984;45.118;20.724;2023-08-17T12:26:20;16.30;;;12.40;;
78668;SDS011;67984;45.118;20.724;2023-08-17T12:36:21;15.77;;;13.15;;
78668;SDS011;67984;45.118;20.724;2023-08-17T12:46:22;13.43;;;11.50;;
78668;SDS011;67984;45.118;20.724;2023-08-17T12:56:23;14.82;;;11.77;;
78668;SDS011;67984;45.118;20.724;2023-08-17T13:06:24;12.93;;;10.65;;
78668;SDS011;67984;45.118;20.724;2023-08-17T13:16:24;14.33;;;10.63;;
78668;SDS011;67984;45.118;20.724;2023-08-17T13:26:25;10.95;;;9.57;;
78668;SDS011;67984;45.118;20.724;2023-08-17T13:36:25;14.60;;;9.20;;
78668;SDS011;67984;45.118;20.724;2023-08-17T13:46:26;9.50;;;8.50;;
78668;SDS011;67984;45.118;20.724;2023-08-17T13:56:26;12.27;;;8.65;;
78668;SDS011;67984;45.118;20.724;2023-08-17T14:06:27;10.70;;;7.70;;
78668;SDS011;67984;45.118;20.724;2023-08-17T14:16:28;10.60;;;8.25;;
78668;SDS011;67984;45.118;20.724;2023-08-17T14:26:28;10.07;;;7.45;;
78668;SDS011;67984;45.118;20.724;2023-08-17T14:36:29;8.50;;;7.20;;
78668;SDS011;67984;45.118;20.724;2023-08-17T14:46:29;11.80;;;7.65;;
78668;SDS011;67984;45.118;20.724;2023-08-17T14:56:30;11.37;;;6.87;;
78668;SDS011;67984;45.118;20.724;2023-08-17T15:06:31;10.18;;;7.28;;
78668;SDS011;67984;45.118;20.724;2023-08-17T15:16:31;9.93;;;7.65;;
78668;SDS011;67984;45.118;20.724;2023-08-17T15:26:32;14.80;;;7.20;;
78668;SDS011;67984;45.118;20.724;2023-08-17T15:36:33;9.75;;;6.53;;
78668;SDS011;67984;45.118;20.724;2023-08-17T15:46:33;8.90;;;6.50;;
78668;SDS011;67984;45.118;20.724;2023-08-17T15:56:34;8.65;;;6.15;;
78668;SDS011;67984;45.118;20.724;2023-08-17T16:06:34;11.30;;;6.55;;
78668;SDS011;67984;45.118;20.724;2023-08-17T16:16:35;10.32;;;6.03;;
78668;SDS011;67984;45.118;20.724;2023-08-17T16:26:35;6.75;;;5.53;;
78668;SDS011;67984;45.118;20.724;2023-08-17T16:36:36;9.15;;;4.88;;
78668;SDS011;67984;45.118;20.724;2023-08-17T16:46:36;7.07;;;5.90;;
78668;SDS011;67984;45.118;20.724;2023-08-17T16:56:37;11.98;;;5.50;;
78668;SDS011;67984;45.118;20.724;2023-08-17T17:06:39;9.60;;;5.55;;
78668;SDS011;67984;45.118;20.724;2023-08-17T17:16:40;8.45;;;5.20;;
78668;SDS011;67984;45.118;20.724;2023-08-17T17:26:40;11.30;;;5.43;;
78668;SDS011;67984;45.118;20.724;2023-08-17T17:36:41;13.82;;;5.47;;
78668;SDS011;67984;45.118;20.724;2023-08-17T17:46:41;26.13;;;6.07;;
78668;SDS011;67984;45.118;20.724;2023-08-17T17:56:42;15.55;;;9.45;;
78668;SDS011;67984;45.118;20.724;2023-08-17T18:06:43;6.57;;;5.85;;
78668;SDS011;67984;45.118;20.724;2023-08-17T18:16:43;12.40;;;5.80;;
78668;SDS011;67984;45.118;20.724;2023-08-17T18:26:44;6.97;;;6.28;;
78668;SDS011;67984;45.118;20.724;2023-08-17T18:36:46;12.35;;;7.13;;
78668;SDS011;67984;45.118;20.724;2023-08-17T18:46:47;13.23;;;7.07;;
78668;SDS011;67984;45.118;20.724;2023-08-17T18:56:47;10.45;;;6.78;;
78668;SDS011;67984;45.118;20.724;2023-08-17T19:06:47;9.20;;;6.00;;
78668;SDS011;67984;45.118;20.724;2023-08-17T19:16:48;10.20;;;6.95;;
78668;SDS011;67984;45.118;20.724;2023-08-17T19:26:49;9.90;;;6.60;;
78668;SDS011;67984;45.118;20.724;2023-08-17T19:36:49;6.90;;;5.78;;
78668;SDS011;67984;45.118;20.724;2023-08-17T19:46:50;8.70;;;7.15;;
78668;SDS011;67984;45.118;20.724;2023-08-17T19:56:51;10.57;;;6.65;;
78668;SDS011;67984;45.118;20.724;2023-08-17T20:06:51;14.90;;;7.18;;
78668;SDS011;67984;45.118;20.724;2023-08-17T20:16:52;11.50;;;7.90;;
78668;SDS011;67984;45.118;20.724;2023-08-17T20:26:52;12.68;;;7.85;;
78668;SDS011;67984;45.118;20.724;2023-08-17T20:36:53;9.43;;;6.83;;
78668;SDS011;67984;45.118;20.724;2023-08-17T20:46:53;12.90;;;7.45;;
78668;SDS011;67984;45.118;20.724;2023-08-17T20:56:54;9.77;;;7.38;;
78668;SDS011;67984;45.118;20.724;2023-08-17T21:06:54;14.13;;;7.70;;
78668;SDS011;67984;45.118;20.724;2023-08-17T21:16:55;8.43;;;7.15;;
78668;SDS011;67984;45.118;20.724;2023-08-17T21:26:56;8.93;;;7.85;;
78668;SDS011;67984;45.118;20.724;2023-08-17T21:36:56;10.65;;;7.78;;
78668;SDS011;67984;45.118;20.724;2023-08-17T21:46:57;15.40;;;7.65;;
78668;SDS011;67984;45.118;20.724;2023-08-17T21:56:57;12.50;;;7.30;;
78668;SDS011;67984;45.118;20.724;2023-08-17T22:07:00;14.13;;;8.75;;
78668;SDS011;67984;45.118;20.724;2023-08-17T22:17:00;12.00;;;8.63;;
78668;SDS011;67984;45.118;20.724;2023-08-17T22:27:01;16.85;;;9.00;;
78668;SDS011;67984;45.118;20.724;2023-08-17T22:37:01;18.15;;;10.93;;
78668;SDS011;67984;45.118;20.724;2023-08-17T22:47:02;12.40;;;10.73;;
78668;SDS011;67984;45.118;20.724;2023-08-17T22:57:03;16.55;;;12.65;;
78668;SDS011;67984;45.118;20.724;2023-08-17T23:07:04;19.40;;;13.53;;
78668;SDS011;67984;45.118;20.724;2023-08-17T23:17:04;19.00;;;13.88;;
78668;SDS011;67984;45.118;20.724;2023-08-17T23:27:05;17.90;;;14.17;;
78668;SDS011;67984;45.118;20.724;2023-08-17T23:37:06;17.90;;;12.73;;
78668;SDS011;67984;45.118;20.724;2023-08-17T23:47:06;15.20;;;13.15;;
78668;SDS011;67984;45.118;20.724;2023-08-17T23:57:07;21.52;;;13.50;;
